sensor_id;sensor_type;location;lat;lon;timestamp;temperature;humidity
68215;DHT22;55036;52.138;5.236;2023-03-03T00:00:06;3.70;82.60
68215;DHT22;55036;52.138;5.236;2023-03-03T00:02:33;3.70;82.70
68215;DHT22;55036;52.138;5.236;2023-03-03T00:04:59;3.70;83.70
68215;DHT22;55036;52.138;5.236;2023-03-03T00:07:26;3.70;83.20
68215;DHT22;55036;52.138;5.236;2023-03-03T00:09:53;3.70;83.40
68215;DHT22;55036;52.138;5.236;2023-03-03T00:12:24;3.70;83.40
68215;DHT22;55036;52.138;5.236;2023-03-03T00:14:51;3.70;83.30
68215;DHT22;55036;52.138;5.236;2023-03-03T00:17:29;3.70;83.40
68215;DHT22;55036;52.138;5.236;2023-03-03T00:19:55;3.60;83.60
68215;DHT22;55036;52.138;5.236;2023-03-03T00:24:52;3.60;83.60
68215;DHT22;55036;52.138;5.236;2023-03-03T00:27:29;3.60;83.50
68215;DHT22;55036;52.138;5.236;2023-03-03T00:30:00;3.60;83.70
68215;DHT22;55036;52.138;5.236;2023-03-03T00:32:30;3.60;83.70
68215;DHT22;55036;52.138;5.236;2023-03-03T00:37:57;3.60;84.50
68215;DHT22;55036;52.138;5.236;2023-03-03T00:40:45;3.60;84.40
68215;DHT22;55036;52.138;5.236;2023-03-03T00:45:55;3.50;84.80
68215;DHT22;55036;52.138;5.236;2023-03-03T00:51:30;3.40;86.50
68215;DHT22;55036;52.138;5.236;2023-03-03T00:53:56;3.30;86.80
68215;DHT22;55036;52.138;5.236;2023-03-03T00:56:23;3.30;86.40
68215;DHT22;55036;52.138;5.236;2023-03-03T00:58:50;3.30;85.90
68215;DHT22;55036;52.138;5.236;2023-03-03T01:01:18;3.30;86.10
68215;DHT22;55036;52.138;5.236;2023-03-03T01:03:45;3.20;86.80
68215;DHT22;55036;52.138;5.236;2023-03-03T01:06:12;3.20;87.80
68215;DHT22;55036;52.138;5.236;2023-03-03T01:08:39;3.10;88.20
68215;DHT22;55036;52.138;5.236;2023-03-03T01:11:10;3.10;88.10
68215;DHT22;55036;52.138;5.236;2023-03-03T01:13:39;3.10;88.60
68215;DHT22;55036;52.138;5.236;2023-03-03T01:16:06;3.10;87.60
68215;DHT22;55036;52.138;5.236;2023-03-03T01:18:34;3.10;88.30
68215;DHT22;55036;52.138;5.236;2023-03-03T01:21:02;3.00;88.90
68215;DHT22;55036;52.138;5.236;2023-03-03T01:23:28;3.00;89.20
68215;DHT22;55036;52.138;5.236;2023-03-03T01:25:55;2.90;88.70
68215;DHT22;55036;52.138;5.236;2023-03-03T01:28:22;2.90;89.80
68215;DHT22;55036;52.138;5.236;2023-03-03T01:30:49;2.80;89.20
68215;DHT22;55036;52.138;5.236;2023-03-03T01:33:16;2.80;90.30
68215;DHT22;55036;52.138;5.236;2023-03-03T01:35:46;2.80;89.80
68215;DHT22;55036;52.138;5.236;2023-03-03T01:38:14;2.90;90.10
68215;DHT22;55036;52.138;5.236;2023-03-03T01:40:41;2.90;90.00
68215;DHT22;55036;52.138;5.236;2023-03-03T01:43:09;3.00;88.80
68215;DHT22;55036;52.138;5.236;2023-03-03T01:48:33;2.90;88.50
68215;DHT22;55036;52.138;5.236;2023-03-03T01:51:18;2.90;89.30
68215;DHT22;55036;52.138;5.236;2023-03-03T01:54:01;2.90;88.90
68215;DHT22;55036;52.138;5.236;2023-03-03T01:56:29;2.90;88.70
68215;DHT22;55036;52.138;5.236;2023-03-03T01:59:17;2.80;89.50
68215;DHT22;55036;52.138;5.236;2023-03-03T02:01:46;2.80;89.20
68215;DHT22;55036;52.138;5.236;2023-03-03T02:04:13;2.90;89.30
68215;DHT22;55036;52.138;5.236;2023-03-03T02:06:44;2.90;88.60
68215;DHT22;55036;52.138;5.236;2023-03-03T02:11:48;2.70;89.00
68215;DHT22;55036;52.138;5.236;2023-03-03T02:14:15;2.70;89.80
68215;DHT22;55036;52.138;5.236;2023-03-03T02:16:42;2.60;89.70
68215;DHT22;55036;52.138;5.236;2023-03-03T02:21:55;2.50;90.10
68215;DHT22;55036;52.138;5.236;2023-03-03T02:24:27;2.40;90.50
68215;DHT22;55036;52.138;5.236;2023-03-03T02:26:55;2.30;91.10
68215;DHT22;55036;52.138;5.236;2023-03-03T02:29:22;2.30;90.80
68215;DHT22;55036;52.138;5.236;2023-03-03T02:31:49;2.20;90.80
68215;DHT22;55036;52.138;5.236;2023-03-03T02:34:16;2.30;90.90
68215;DHT22;55036;52.138;5.236;2023-03-03T02:36:43;2.20;90.90
68215;DHT22;55036;52.138;5.236;2023-03-03T02:39:16;2.30;90.80
68215;DHT22;55036;52.138;5.236;2023-03-03T02:42:14;2.30;90.50
68215;DHT22;55036;52.138;5.236;2023-03-03T02:44:42;2.40;90.40
68215;DHT22;55036;52.138;5.236;2023-03-03T02:47:08;2.40;90.40
68215;DHT22;55036;52.138;5.236;2023-03-03T02:49:36;2.30;90.50
68215;DHT22;55036;52.138;5.236;2023-03-03T02:52:04;2.30;90.80
68215;DHT22;55036;52.138;5.236;2023-03-03T02:54:32;2.30;90.50
68215;DHT22;55036;52.138;5.236;2023-03-03T02:56:59;2.40;90.40
68215;DHT22;55036;52.138;5.236;2023-03-03T02:59:27;2.40;90.30
68215;DHT22;55036;52.138;5.236;2023-03-03T03:01:54;2.40;90.20
68215;DHT22;55036;52.138;5.236;2023-03-03T03:04:23;2.50;90.30
68215;DHT22;55036;52.138;5.236;2023-03-03T03:06:52;2.40;90.20
68215;DHT22;55036;52.138;5.236;2023-03-03T03:09:21;2.40;90.20
68215;DHT22;55036;52.138;5.236;2023-03-03T03:11:48;2.30;90.40
68215;DHT22;55036;52.138;5.236;2023-03-03T03:14:14;2.30;90.50
68215;DHT22;55036;52.138;5.236;2023-03-03T03:16:41;2.30;91.20
68215;DHT22;55036;52.138;5.236;2023-03-03T03:19:08;2.30;91.20
68215;DHT22;55036;52.138;5.236;2023-03-03T03:21:35;2.30;91.00
68215;DHT22;55036;52.138;5.236;2023-03-03T03:24:02;2.40;90.90
68215;DHT22;55036;52.138;5.236;2023-03-03T03:26:28;2.40;90.70
68215;DHT22;55036;52.138;5.236;2023-03-03T03:28:55;2.40;90.40
68215;DHT22;55036;52.138;5.236;2023-03-03T03:31:22;2.40;90.40
68215;DHT22;55036;52.138;5.236;2023-03-03T03:33:49;2.60;90.50
68215;DHT22;55036;52.138;5.236;2023-03-03T03:36:17;2.50;90.90
68215;DHT22;55036;52.138;5.236;2023-03-03T03:38:44;2.40;91.10
68215;DHT22;55036;52.138;5.236;2023-03-03T03:41:11;2.40;91.20
68215;DHT22;55036;52.138;5.236;2023-03-03T03:43:38;2.30;91.70
68215;DHT22;55036;52.138;5.236;2023-03-03T03:46:05;2.30;91.40
68215;DHT22;55036;52.138;5.236;2023-03-03T03:48:32;2.40;91.30
68215;DHT22;55036;52.138;5.236;2023-03-03T03:50:59;2.40;91.30
68215;DHT22;55036;52.138;5.236;2023-03-03T03:53:25;2.50;91.10
68215;DHT22;55036;52.138;5.236;2023-03-03T03:55:52;2.50;91.00
68215;DHT22;55036;52.138;5.236;2023-03-03T03:58:19;2.50;91.00
68215;DHT22;55036;52.138;5.236;2023-03-03T04:00:46;2.60;90.90
68215;DHT22;55036;52.138;5.236;2023-03-03T04:03:13;2.60;90.90
68215;DHT22;55036;52.138;5.236;2023-03-03T04:05:41;2.70;90.80
68215;DHT22;55036;52.138;5.236;2023-03-03T04:08:08;2.60;90.90
68215;DHT22;55036;52.138;5.236;2023-03-03T04:10:35;2.60;91.00
68215;DHT22;55036;52.138;5.236;2023-03-03T04:13:02;2.60;91.00
68215;DHT22;55036;52.138;5.236;2023-03-03T04:15:29;2.60;91.10
68215;DHT22;55036;52.138;5.236;2023-03-03T04:17:55;2.70;91.50
68215;DHT22;55036;52.138;5.236;2023-03-03T04:20:22;2.60;91.30
68215;DHT22;55036;52.138;5.236;2023-03-03T04:22:49;2.60;91.60
68215;DHT22;55036;52.138;5.236;2023-03-03T04:25:16;2.60;91.50
68215;DHT22;55036;52.138;5.236;2023-03-03T04:27:43;2.70;91.30
68215;DHT22;55036;52.138;5.236;2023-03-03T04:30:13;2.70;91.10
68215;DHT22;55036;52.138;5.236;2023-03-03T04:32:40;2.70;91.40
68215;DHT22;55036;52.138;5.236;2023-03-03T04:35:08;2.80;91.30
68215;DHT22;55036;52.138;5.236;2023-03-03T04:37:35;2.80;91.50
68215;DHT22;55036;52.138;5.236;2023-03-03T04:40:05;2.80;91.30
68215;DHT22;55036;52.138;5.236;2023-03-03T04:42:32;2.80;91.40
68215;DHT22;55036;52.138;5.236;2023-03-03T04:44:58;2.80;91.20
68215;DHT22;55036;52.138;5.236;2023-03-03T04:47:25;2.90;91.40
68215;DHT22;55036;52.138;5.236;2023-03-03T04:49:52;2.90;91.10
68215;DHT22;55036;52.138;5.236;2023-03-03T04:52:19;3.00;91.10
68215;DHT22;55036;52.138;5.236;2023-03-03T04:54:45;3.00;91.10
68215;DHT22;55036;52.138;5.236;2023-03-03T04:57:12;3.10;91.00
68215;DHT22;55036;52.138;5.236;2023-03-03T04:59:38;3.10;90.90
68215;DHT22;55036;52.138;5.236;2023-03-03T05:02:05;3.20;90.90
68215;DHT22;55036;52.138;5.236;2023-03-03T05:04:32;3.10;90.80
68215;DHT22;55036;52.138;5.236;2023-03-03T05:06:59;3.00;91.50
68215;DHT22;55036;52.138;5.236;2023-03-03T05:09:26;3.00;91.50
68215;DHT22;55036;52.138;5.236;2023-03-03T05:11:53;3.00;91.30
68215;DHT22;55036;52.138;5.236;2023-03-03T05:14:19;3.10;91.30
68215;DHT22;55036;52.138;5.236;2023-03-03T05:16:46;3.10;91.10
68215;DHT22;55036;52.138;5.236;2023-03-03T05:19:13;3.00;91.20
68215;DHT22;55036;52.138;5.236;2023-03-03T05:21:40;3.00;91.20
68215;DHT22;55036;52.138;5.236;2023-03-03T05:24:12;3.10;91.10
68215;DHT22;55036;52.138;5.236;2023-03-03T05:26:39;3.10;91.40
68215;DHT22;55036;52.138;5.236;2023-03-03T05:29:07;3.10;91.20
68215;DHT22;55036;52.138;5.236;2023-03-03T05:31:34;3.20;91.30
68215;DHT22;55036;52.138;5.236;2023-03-03T05:34:00;3.10;91.70
68215;DHT22;55036;52.138;5.236;2023-03-03T05:36:27;3.00;91.50
68215;DHT22;55036;52.138;5.236;2023-03-03T05:38:54;3.10;91.60
68215;DHT22;55036;52.138;5.236;2023-03-03T05:41:21;3.00;91.90
68215;DHT22;55036;52.138;5.236;2023-03-03T05:43:47;3.10;92.00
68215;DHT22;55036;52.138;5.236;2023-03-03T05:46:14;3.10;91.80
68215;DHT22;55036;52.138;5.236;2023-03-03T05:48:41;3.20;91.70
68215;DHT22;55036;52.138;5.236;2023-03-03T05:51:07;3.20;91.90
68215;DHT22;55036;52.138;5.236;2023-03-03T05:53:34;3.20;91.80
68215;DHT22;55036;52.138;5.236;2023-03-03T05:56:01;3.20;92.00
68215;DHT22;55036;52.138;5.236;2023-03-03T05:58:29;3.20;92.00
68215;DHT22;55036;52.138;5.236;2023-03-03T06:00:56;3.20;92.10
68215;DHT22;55036;52.138;5.236;2023-03-03T06:03:23;3.20;91.90
68215;DHT22;55036;52.138;5.236;2023-03-03T06:05:49;3.20;92.10
68215;DHT22;55036;52.138;5.236;2023-03-03T06:08:16;3.20;92.10
68215;DHT22;55036;52.138;5.236;2023-03-03T06:10:43;3.20;92.20
68215;DHT22;55036;52.138;5.236;2023-03-03T06:13:10;3.20;92.20
68215;DHT22;55036;52.138;5.236;2023-03-03T06:15:36;3.20;92.10
68215;DHT22;55036;52.138;5.236;2023-03-03T06:18:03;3.30;92.10
68215;DHT22;55036;52.138;5.236;2023-03-03T06:20:30;3.30;91.90
68215;DHT22;55036;52.138;5.236;2023-03-03T06:22:58;3.40;91.90
68215;DHT22;55036;52.138;5.236;2023-03-03T06:25:25;3.30;91.90
68215;DHT22;55036;52.138;5.236;2023-03-03T06:27:52;3.40;92.00
68215;DHT22;55036;52.138;5.236;2023-03-03T06:30:19;3.30;92.10
68215;DHT22;55036;52.138;5.236;2023-03-03T06:32:45;3.30;92.30
68215;DHT22;55036;52.138;5.236;2023-03-03T06:35:12;3.30;92.30
68215;DHT22;55036;52.138;5.236;2023-03-03T06:37:39;3.30;92.30
68215;DHT22;55036;52.138;5.236;2023-03-03T06:40:06;3.30;92.40
68215;DHT22;55036;52.138;5.236;2023-03-03T06:42:33;3.30;92.40
68215;DHT22;55036;52.138;5.236;2023-03-03T06:44:59;3.40;92.40
68215;DHT22;55036;52.138;5.236;2023-03-03T06:47:26;3.40;92.30
68215;DHT22;55036;52.138;5.236;2023-03-03T06:49:52;3.50;92.20
68215;DHT22;55036;52.138;5.236;2023-03-03T06:52:22;3.50;92.50
68215;DHT22;55036;52.138;5.236;2023-03-03T06:54:53;3.40;92.30
68215;DHT22;55036;52.138;5.236;2023-03-03T06:57:28;3.30;92.70
68215;DHT22;55036;52.138;5.236;2023-03-03T07:00:28;3.40;92.50
68215;DHT22;55036;52.138;5.236;2023-03-03T07:02:59;3.40;92.60
68215;DHT22;55036;52.138;5.236;2023-03-03T07:05:28;3.40;92.80
68215;DHT22;55036;52.138;5.236;2023-03-03T07:07:56;3.50;93.10
68215;DHT22;55036;52.138;5.236;2023-03-03T07:10:28;3.50;92.60
68215;DHT22;55036;52.138;5.236;2023-03-03T07:12:59;3.50;92.30
68215;DHT22;55036;52.138;5.236;2023-03-03T07:15:34;3.50;92.60
68215;DHT22;55036;52.138;5.236;2023-03-03T07:18:01;3.50;92.60
68215;DHT22;55036;52.138;5.236;2023-03-03T07:20:35;3.50;92.60
68215;DHT22;55036;52.138;5.236;2023-03-03T07:23:25;3.50;92.60
68215;DHT22;55036;52.138;5.236;2023-03-03T07:25:52;3.50;92.80
68215;DHT22;55036;52.138;5.236;2023-03-03T07:28:28;3.40;93.10
68215;DHT22;55036;52.138;5.236;2023-03-03T07:30:57;3.40;93.30
68215;DHT22;55036;52.138;5.236;2023-03-03T07:33:30;3.40;93.20
68215;DHT22;55036;52.138;5.236;2023-03-03T07:36:01;3.40;93.30
68215;DHT22;55036;52.138;5.236;2023-03-03T07:38:41;3.40;93.50
68215;DHT22;55036;52.138;5.236;2023-03-03T07:41:15;3.40;93.50
68215;DHT22;55036;52.138;5.236;2023-03-03T07:49:27;3.60;93.10
68215;DHT22;55036;52.138;5.236;2023-03-03T07:51:56;3.70;93.00
68215;DHT22;55036;52.138;5.236;2023-03-03T07:57:01;3.80;93.00
68215;DHT22;55036;52.138;5.236;2023-03-03T07:59:32;3.80;93.30
68215;DHT22;55036;52.138;5.236;2023-03-03T08:02:00;3.90;93.20
68215;DHT22;55036;52.138;5.236;2023-03-03T08:06:59;4.10;93.20
68215;DHT22;55036;52.138;5.236;2023-03-03T08:09:35;4.10;92.60
68215;DHT22;55036;52.138;5.236;2023-03-03T08:14:36;4.10;92.70
68215;DHT22;55036;52.138;5.236;2023-03-03T08:17:20;4.10;92.70
68215;DHT22;55036;52.138;5.236;2023-03-03T08:19:47;4.20;92.80
68215;DHT22;55036;52.138;5.236;2023-03-03T08:22:17;4.30;92.50
68215;DHT22;55036;52.138;5.236;2023-03-03T08:24:44;4.20;92.70
68215;DHT22;55036;52.138;5.236;2023-03-03T08:27:11;4.20;92.80
68215;DHT22;55036;52.138;5.236;2023-03-03T08:29:38;4.20;92.60
68215;DHT22;55036;52.138;5.236;2023-03-03T08:32:04;4.20;92.40
68215;DHT22;55036;52.138;5.236;2023-03-03T08:34:31;4.30;92.40
68215;DHT22;55036;52.138;5.236;2023-03-03T08:36:58;4.40;92.50
68215;DHT22;55036;52.138;5.236;2023-03-03T08:39:25;4.50;92.30
68215;DHT22;55036;52.138;5.236;2023-03-03T08:41:51;4.50;92.20
68215;DHT22;55036;52.138;5.236;2023-03-03T08:44:18;4.60;92.30
68215;DHT22;55036;52.138;5.236;2023-03-03T08:46:46;4.60;92.00
68215;DHT22;55036;52.138;5.236;2023-03-03T08:49:13;4.60;92.00
68215;DHT22;55036;52.138;5.236;2023-03-03T08:51:40;4.50;92.10
68215;DHT22;55036;52.138;5.236;2023-03-03T08:54:07;4.50;92.00
68215;DHT22;55036;52.138;5.236;2023-03-03T08:56:33;4.50;92.10
68215;DHT22;55036;52.138;5.236;2023-03-03T08:59:00;4.50;92.40
68215;DHT22;55036;52.138;5.236;2023-03-03T09:01:30;4.60;92.20
68215;DHT22;55036;52.138;5.236;2023-03-03T09:03:57;4.70;92.20
68215;DHT22;55036;52.138;5.236;2023-03-03T09:06:24;4.80;92.30
68215;DHT22;55036;52.138;5.236;2023-03-03T09:08:50;4.70;92.40
68215;DHT22;55036;52.138;5.236;2023-03-03T09:11:23;4.90;92.40
68215;DHT22;55036;52.138;5.236;2023-03-03T09:14:00;5.00;92.20
68215;DHT22;55036;52.138;5.236;2023-03-03T09:16:30;5.00;91.80
68215;DHT22;55036;52.138;5.236;2023-03-03T09:19:28;5.00;91.40
68215;DHT22;55036;52.138;5.236;2023-03-03T09:21:55;5.00;91.90
68215;DHT22;55036;52.138;5.236;2023-03-03T09:24:35;5.30;92.50
68215;DHT22;55036;52.138;5.236;2023-03-03T09:27:14;5.50;92.40
68215;DHT22;55036;52.138;5.236;2023-03-03T09:29:44;5.70;91.30
68215;DHT22;55036;52.138;5.236;2023-03-03T09:32:27;5.70;91.10
68215;DHT22;55036;52.138;5.236;2023-03-03T09:34:55;5.80;91.10
68215;DHT22;55036;52.138;5.236;2023-03-03T09:37:23;5.80;91.20
68215;DHT22;55036;52.138;5.236;2023-03-03T09:39:53;5.90;91.10
68215;DHT22;55036;52.138;5.236;2023-03-03T09:51:35;6.30;90.60
68215;DHT22;55036;52.138;5.236;2023-03-03T09:56:48;6.20;87.50
68215;DHT22;55036;52.138;5.236;2023-03-03T09:59:35;6.30;90.00
68215;DHT22;55036;52.138;5.236;2023-03-03T10:02:19;6.40;87.60
68215;DHT22;55036;52.138;5.236;2023-03-03T10:05:10;6.30;86.70
68215;DHT22;55036;52.138;5.236;2023-03-03T10:10:50;6.10;87.20
68215;DHT22;55036;52.138;5.236;2023-03-03T10:13:44;6.10;88.50
68215;DHT22;55036;52.138;5.236;2023-03-03T10:18:59;6.90;88.00
68215;DHT22;55036;52.138;5.236;2023-03-03T10:21:35;7.10;86.50
68215;DHT22;55036;52.138;5.236;2023-03-03T10:24:20;7.10;83.80
68215;DHT22;55036;52.138;5.236;2023-03-03T10:32:34;7.70;81.60
68215;DHT22;55036;52.138;5.236;2023-03-03T10:38:12;8.30;79.50
68215;DHT22;55036;52.138;5.236;2023-03-03T10:40:54;8.40;80.80
68215;DHT22;55036;52.138;5.236;2023-03-03T10:43:33;8.40;78.70
68215;DHT22;55036;52.138;5.236;2023-03-03T10:57:40;8.60;74.10
68215;DHT22;55036;52.138;5.236;2023-03-03T11:00:21;8.00;75.20
68215;DHT22;55036;52.138;5.236;2023-03-03T11:03:39;7.80;77.40
68215;DHT22;55036;52.138;5.236;2023-03-03T11:12:06;8.10;76.60
68215;DHT22;55036;52.138;5.236;2023-03-03T11:14:44;8.10;76.70
68215;DHT22;55036;52.138;5.236;2023-03-03T11:17:19;8.00;75.90
68215;DHT22;55036;52.138;5.236;2023-03-03T11:20:30;7.90;75.90
68215;DHT22;55036;52.138;5.236;2023-03-03T11:23:09;7.80;77.10
68215;DHT22;55036;52.138;5.236;2023-03-03T11:25:49;7.80;77.40
68215;DHT22;55036;52.138;5.236;2023-03-03T11:36:44;8.60;75.30
68215;DHT22;55036;52.138;5.236;2023-03-03T11:39:22;8.70;73.40
68215;DHT22;55036;52.138;5.236;2023-03-03T11:44:59;8.30;73.10
68215;DHT22;55036;52.138;5.236;2023-03-03T11:47:37;8.30;73.40
68215;DHT22;55036;52.138;5.236;2023-03-03T11:50:15;8.50;74.00
68215;DHT22;55036;52.138;5.236;2023-03-03T11:52:49;8.80;74.10
68215;DHT22;55036;52.138;5.236;2023-03-03T11:58:25;9.10;72.20
68215;DHT22;55036;52.138;5.236;2023-03-03T12:01:22;9.20;69.80
68215;DHT22;55036;52.138;5.236;2023-03-03T12:04:06;9.20;70.40
68215;DHT22;55036;52.138;5.236;2023-03-03T12:15:12;9.00;67.70
68215;DHT22;55036;52.138;5.236;2023-03-03T12:29:10;9.50;67.30
68215;DHT22;55036;52.138;5.236;2023-03-03T12:37:53;9.30;68.70
68215;DHT22;55036;52.138;5.236;2023-03-03T12:40:34;9.50;67.60
68215;DHT22;55036;52.138;5.236;2023-03-03T12:43:16;9.90;66.90
68215;DHT22;55036;52.138;5.236;2023-03-03T12:46:16;10.10;67.00
68215;DHT22;55036;52.138;5.236;2023-03-03T12:48:46;10.20;65.00
68215;DHT22;55036;52.138;5.236;2023-03-03T12:54:24;10.60;61.00
68215;DHT22;55036;52.138;5.236;2023-03-03T13:02:57;10.00;60.00
68215;DHT22;55036;52.138;5.236;2023-03-03T13:08:27;9.70;63.10
68215;DHT22;55036;52.138;5.236;2023-03-03T13:11:04;9.70;62.60
68215;DHT22;55036;52.138;5.236;2023-03-03T13:13:35;9.60;62.90
68215;DHT22;55036;52.138;5.236;2023-03-03T13:16:08;9.60;63.10
68215;DHT22;55036;52.138;5.236;2023-03-03T13:18:57;9.70;63.40
68215;DHT22;55036;52.138;5.236;2023-03-03T13:21:35;9.60;63.30
68215;DHT22;55036;52.138;5.236;2023-03-03T13:24:17;9.40;63.30
68215;DHT22;55036;52.138;5.236;2023-03-03T13:27:10;9.20;64.20
68215;DHT22;55036;52.138;5.236;2023-03-03T13:29:49;9.00;63.90
68215;DHT22;55036;52.138;5.236;2023-03-03T13:32:21;8.90;63.50
68215;DHT22;55036;52.138;5.236;2023-03-03T13:35:20;8.80;64.20
68215;DHT22;55036;52.138;5.236;2023-03-03T13:37:54;8.90;64.50
68215;DHT22;55036;52.138;5.236;2023-03-03T13:40:38;9.00;64.50
68215;DHT22;55036;52.138;5.236;2023-03-03T13:43:16;9.10;63.20
68215;DHT22;55036;52.138;5.236;2023-03-03T13:45:55;9.20;63.90
68215;DHT22;55036;52.138;5.236;2023-03-03T13:48:36;9.20;63.70
68215;DHT22;55036;52.138;5.236;2023-03-03T13:54:10;9.40;62.80
68215;DHT22;55036;52.138;5.236;2023-03-03T14:05:47;9.30;62.90
68215;DHT22;55036;52.138;5.236;2023-03-03T14:10:58;9.20;62.40
68215;DHT22;55036;52.138;5.236;2023-03-03T14:19:34;9.20;61.70
68215;DHT22;55036;52.138;5.236;2023-03-03T14:22:26;9.30;62.20
68215;DHT22;55036;52.138;5.236;2023-03-03T14:25:10;9.20;61.30
68215;DHT22;55036;52.138;5.236;2023-03-03T14:33:20;9.20;60.00
68215;DHT22;55036;52.138;5.236;2023-03-03T14:36:00;9.20;60.70
68215;DHT22;55036;52.138;5.236;2023-03-03T14:41:18;9.20;58.90
68215;DHT22;55036;52.138;5.236;2023-03-03T14:43:59;9.10;58.80
68215;DHT22;55036;52.138;5.236;2023-03-03T14:49:12;9.00;61.20
68215;DHT22;55036;52.138;5.236;2023-03-03T14:51:47;9.10;61.00
68215;DHT22;55036;52.138;5.236;2023-03-03T14:54:27;9.10;61.50
68215;DHT22;55036;52.138;5.236;2023-03-03T14:57:00;9.00;61.20
68215;DHT22;55036;52.138;5.236;2023-03-03T14:59:29;9.00;61.70
68215;DHT22;55036;52.138;5.236;2023-03-03T15:02:02;9.10;61.80
68215;DHT22;55036;52.138;5.236;2023-03-03T15:04:34;9.00;62.30
68215;DHT22;55036;52.138;5.236;2023-03-03T15:07:22;9.00;62.10
68215;DHT22;55036;52.138;5.236;2023-03-03T15:09:54;9.00;61.90
68215;DHT22;55036;52.138;5.236;2023-03-03T15:12:23;9.00;62.20
68215;DHT22;55036;52.138;5.236;2023-03-03T15:15:01;9.00;62.10
68215;DHT22;55036;52.138;5.236;2023-03-03T15:17:42;9.00;61.50
68215;DHT22;55036;52.138;5.236;2023-03-03T15:20:40;9.00;61.10
68215;DHT22;55036;52.138;5.236;2023-03-03T15:26:01;8.90;61.40
68215;DHT22;55036;52.138;5.236;2023-03-03T15:42:42;8.90;61.80
68215;DHT22;55036;52.138;5.236;2023-03-03T15:51:29;8.90;60.70
68215;DHT22;55036;52.138;5.236;2023-03-03T15:56:57;8.90;60.50
68215;DHT22;55036;52.138;5.236;2023-03-03T15:59:52;8.90;60.30
68215;DHT22;55036;52.138;5.236;2023-03-03T16:02:57;8.80;60.60
68215;DHT22;55036;52.138;5.236;2023-03-03T16:05:32;8.80;60.10
68215;DHT22;55036;52.138;5.236;2023-03-03T16:10:58;8.80;60.90
68215;DHT22;55036;52.138;5.236;2023-03-03T16:16:27;8.60;61.00
68215;DHT22;55036;52.138;5.236;2023-03-03T16:22:02;8.50;60.70
68215;DHT22;55036;52.138;5.236;2023-03-03T16:24:42;8.40;61.10
68215;DHT22;55036;52.138;5.236;2023-03-03T16:32:39;8.30;61.30
68215;DHT22;55036;52.138;5.236;2023-03-03T16:35:23;8.40;61.60
68215;DHT22;55036;52.138;5.236;2023-03-03T16:38:00;8.40;61.50
68215;DHT22;55036;52.138;5.236;2023-03-03T16:40:47;8.40;61.40
68215;DHT22;55036;52.138;5.236;2023-03-03T16:46:19;8.40;61.50
68215;DHT22;55036;52.138;5.236;2023-03-03T16:48:53;8.40;61.70
68215;DHT22;55036;52.138;5.236;2023-03-03T16:51:38;8.40;61.70
68215;DHT22;55036;52.138;5.236;2023-03-03T16:56:44;8.40;61.80
68215;DHT22;55036;52.138;5.236;2023-03-03T16:59:50;8.40;62.00
68215;DHT22;55036;52.138;5.236;2023-03-03T17:05:15;8.30;62.00
68215;DHT22;55036;52.138;5.236;2023-03-03T17:19:43;8.20;62.30
68215;DHT22;55036;52.138;5.236;2023-03-03T17:22:25;8.30;62.50
68215;DHT22;55036;52.138;5.236;2023-03-03T17:28:07;8.30;62.70
68215;DHT22;55036;52.138;5.236;2023-03-03T17:30:52;8.30;62.60
68215;DHT22;55036;52.138;5.236;2023-03-03T17:36:21;8.20;62.90
68215;DHT22;55036;52.138;5.236;2023-03-03T17:41:31;8.20;63.20
68215;DHT22;55036;52.138;5.236;2023-03-03T17:46:44;8.10;64.00
68215;DHT22;55036;52.138;5.236;2023-03-03T17:52:41;8.10;64.50
68215;DHT22;55036;52.138;5.236;2023-03-03T17:55:41;8.00;64.70
68215;DHT22;55036;52.138;5.236;2023-03-03T18:09:51;8.00;65.40
68215;DHT22;55036;52.138;5.236;2023-03-03T18:15:14;8.00;65.70
68215;DHT22;55036;52.138;5.236;2023-03-03T18:18:01;8.00;66.00
68215;DHT22;55036;52.138;5.236;2023-03-03T18:20:55;7.90;65.90
68215;DHT22;55036;52.138;5.236;2023-03-03T18:26:01;8.00;65.60
68215;DHT22;55036;52.138;5.236;2023-03-03T18:28:49;8.00;65.60
68215;DHT22;55036;52.138;5.236;2023-03-03T18:31:26;7.90;65.50
68215;DHT22;55036;52.138;5.236;2023-03-03T18:34:07;7.90;66.00
68215;DHT22;55036;52.138;5.236;2023-03-03T18:36:53;7.80;66.20
68215;DHT22;55036;52.138;5.236;2023-03-03T18:39:49;7.80;66.30
68215;DHT22;55036;52.138;5.236;2023-03-03T18:42:40;7.80;66.40
68215;DHT22;55036;52.138;5.236;2023-03-03T18:45:46;7.70;66.70
68215;DHT22;55036;52.138;5.236;2023-03-03T18:48:09;7.70;66.60
68215;DHT22;55036;52.138;5.236;2023-03-03T18:50:48;7.80;66.50
68215;DHT22;55036;52.138;5.236;2023-03-03T18:55:48;7.80;66.70
68215;DHT22;55036;52.138;5.236;2023-03-03T19:06:11;7.60;66.60
68215;DHT22;55036;52.138;5.236;2023-03-03T19:08:55;7.70;67.00
68215;DHT22;55036;52.138;5.236;2023-03-03T19:11:38;7.70;66.90
68215;DHT22;55036;52.138;5.236;2023-03-03T19:16:53;7.70;66.70
68215;DHT22;55036;52.138;5.236;2023-03-03T19:19:23;7.80;66.70
68215;DHT22;55036;52.138;5.236;2023-03-03T19:22:13;7.90;66.60
68215;DHT22;55036;52.138;5.236;2023-03-03T19:24:38;7.80;66.50
68215;DHT22;55036;52.138;5.236;2023-03-03T19:38:41;7.70;66.80
68215;DHT22;55036;52.138;5.236;2023-03-03T19:43:39;7.70;67.00
68215;DHT22;55036;52.138;5.236;2023-03-03T19:46:33;7.70;67.20
68215;DHT22;55036;52.138;5.236;2023-03-03T19:49:14;7.70;67.00
68215;DHT22;55036;52.138;5.236;2023-03-03T19:51:59;7.80;67.10
68215;DHT22;55036;52.138;5.236;2023-03-03T20:00:21;7.90;67.10
68215;DHT22;55036;52.138;5.236;2023-03-03T20:08:01;8.00;67.10
68215;DHT22;55036;52.138;5.236;2023-03-03T20:19:41;7.80;67.40
68215;DHT22;55036;52.138;5.236;2023-03-03T20:25:06;8.00;67.50
68215;DHT22;55036;52.138;5.236;2023-03-03T20:27:58;8.00;67.50
68215;DHT22;55036;52.138;5.236;2023-03-03T20:30:44;7.90;67.60
68215;DHT22;55036;52.138;5.236;2023-03-03T20:36:16;7.80;68.10
68215;DHT22;55036;52.138;5.236;2023-03-03T20:44:22;7.80;68.40
68215;DHT22;55036;52.138;5.236;2023-03-03T20:46:58;7.90;68.20
68215;DHT22;55036;52.138;5.236;2023-03-03T20:57:53;7.80;68.80
68215;DHT22;55036;52.138;5.236;2023-03-03T21:00:31;7.80;69.20
68215;DHT22;55036;52.138;5.236;2023-03-03T21:03:23;7.80;69.00
68215;DHT22;55036;52.138;5.236;2023-03-03T21:06:01;7.80;68.90
68215;DHT22;55036;52.138;5.236;2023-03-03T21:08:49;7.80;69.40
68215;DHT22;55036;52.138;5.236;2023-03-03T21:11:20;7.70;69.60
68215;DHT22;55036;52.138;5.236;2023-03-03T21:13:52;7.70;69.80
68215;DHT22;55036;52.138;5.236;2023-03-03T21:19:05;7.70;69.70
68215;DHT22;55036;52.138;5.236;2023-03-03T21:21:42;7.80;69.60
68215;DHT22;55036;52.138;5.236;2023-03-03T21:24:12;7.80;69.70
68215;DHT22;55036;52.138;5.236;2023-03-03T21:26:52;7.80;69.90
68215;DHT22;55036;52.138;5.236;2023-03-03T21:29:20;7.70;69.90
68215;DHT22;55036;52.138;5.236;2023-03-03T21:31:58;7.70;69.80
68215;DHT22;55036;52.138;5.236;2023-03-03T21:34:28;7.80;69.90
68215;DHT22;55036;52.138;5.236;2023-03-03T21:36:57;7.80;70.00
68215;DHT22;55036;52.138;5.236;2023-03-03T21:39:39;7.80;69.90
68215;DHT22;55036;52.138;5.236;2023-03-03T21:44:44;7.80;70.20
68215;DHT22;55036;52.138;5.236;2023-03-03T21:47:13;7.80;70.30